Flight Track Log - Related Links

Times and Time Zones

All times are in EDT time to prevent confusion due to time zone crossing. See the N510SR flight status page for this flight to view local times or setup timezone preferences in your user account.

Time Position Orientation Groundspeed Altitude Reporting Facility
EDT Latitude Longitude Course Direction KTS MPH feet Rate Location/Type
Mon 09:18:10 AM 40.9167 -74.0333 55° Northeast 218 251 2,100  Level New York TRACON
Mon 09:20:10 AM 40.9833 -74.1667 304° West 273 314 6,100 1,333 Climbing New York TRACON
Mon 09:21:10 AM 41.0500 -74.1500 11° North 276 318 6,100 1,037 Level New York TRACON
Mon 09:22:52 AM 41.1658 -74.0803 24° Northeast 289 333 8,900 1,840 Climbing Boston Center
Mon 09:23:00 AM 41.0476 -73.6791 55° Northeast  Level Estimated
Mon 09:23:53 AM 41.1956 -73.9672 71° East 309 356 11,100  Level Boston Center
Mon 09:24:54 AM 41.2228 -73.8414 74° East 353 406 11,100 90 Level Boston Center
Mon 09:26:07 AM 41.2572 -73.6886 73° East 352 405 11,300 1,128 Climbing Boston Center
Mon 09:27:07 AM 41.2861 -73.5603 73° East 363 418 13,600 1,839 Climbing Boston Center
Mon 09:28:11 AM 41.3114 -73.4478 73° East 375 432 15,100 720 Climbing Boston Center
Mon 09:29:12 AM 41.3489 -73.2750 74° East 404 465 15,100  Level Boston Center
Mon 09:30:13 AM 41.3789 -73.1369 74° East 389 448 15,100  Level Boston Center
Mon 09:31:14 AM 41.4092 -72.9892 75° East 387 445 15,100  Level Boston Center
Mon 09:32:27 AM 41.4389 -72.8500 74° East 391 450 15,100  Level Boston Center
Mon 09:33:28 AM 41.4672 -72.7125 75° East 388 447 15,100  Level Boston Center
Mon 09:34:29 AM 41.5031 -72.5414 74° East 390 449 15,100  Level Boston Center
Mon 09:35:30 AM 41.5308 -72.4033 75° East 389 448 15,100 -492 Level Boston Center
Mon 09:36:31 AM 41.5606 -72.2544 75° East 386 444 14,100 -960 Descending Boston Center
Mon 09:37:35 AM 41.5892 -72.1189 74° East 380 437 13,100 -968 Descending Boston Center
Mon 09:38:35 AM 41.6147 -71.9861 76° East 373 429 12,100 -992 Descending Boston Center
Mon 09:39:36 AM 41.6428 -71.8447 75° East 369 425 11,100 -492 Descending Boston Center
Mon 09:40:37 AM 41.6694 -71.7103 75° East 375 432 11,100  Level Boston Center
Mon 09:41:38 AM 41.6956 -71.5814 75° East 367 422 11,100  Level Boston Center
Mon 09:42:39 AM 41.7200 -71.4681 74° East 297 342 11,100  Level Boston Center
Mon 09:43:43 AM 41.7658 -71.3767 56° Northeast 297 342 11,100  Level Boston Center
Mon 09:44:43 AM 41.8200 -71.2842 52° Northeast 297 342 11,100 -149 Level Boston Center
Mon 09:45:44 AM 41.8894 -71.2258 32° Northeast 296 341 10,800 -1,161 Descending Boston Center
Mon 09:46:47 AM 41.9617 -71.1928 19° North 276 318 8,700 -2,341 Descending Boston Center
Mon 09:47:47 AM 42.0389 -71.1658 15° North 267 307 6,000 -2,331 Descending Boston Center
Mon 09:48:48 AM 42.1044 -71.1336 20° North 254 292 4,000 -1,073 Descending Boston Center
Mon 09:49:50 AM 42.1667 -71.1014 21° North 242 278 3,800 -590 Descending Boston Center
Mon 09:50:50 AM 42.2206 -71.0767 19° North 189 217 2,800 -838 Descending Boston Center
Mon 09:52:06 AM 42.2656 -71.0544 20° North 173 199 1,900 -832 Descending Boston Center
Mon 09:53:07 AM 42.3131 -71.0306 20° North 169 194 900 -738 Descending Boston Center
Mon 09:54:08 AM 42.3631 -71.0086 18° North 169 194 400 -492 Descending Boston Center
Mon 09:56:00 AM 42.3630 -71.0064 North  Level Estimated

Login

Don't have an account? Register now (free) for customized features, flight alerts, and more!